Close

Questo sito utlizza cookie. Può leggere come li usiamo nella nostra Privacy Policy.

Ronchi Tower
Ronchi Tower

From Facebook

METAR & TAF

2022/05/22 13:20 LIPQ 221320Z AUTO 23008KT 200V270 9999 NCD 29/16 Q1010
2022/05/22 12:22 TAF LIPQ 221100Z 2212/2312 21010KT CAVOK BECMG 2216/2218 VRB05KT
2022/05/22 13:20 LIPZ 221320Z 16005KT 130V200 CAVOK 26/18 Q1011 NOSIG
2022/05/22 12:22 TAF LIPZ 221100Z 2212/2318 15010KT CAVOK BECMG 2217/2219 VRB05KT BECMG 2300/2302 05010KT BECMG 2309/2311 15010KT TEMPO 2309/2313 TSRA
2022/05/22 13:20 LIPH 221320Z 17003KT 130V200 9999 FEW050 28/17 Q1011
2022/05/22 12:22 TAF LIPH 221100Z 2212/2312 VRB05KT CAVOK TEMPO 2309/2312 TSRA
2022/05/22 13:20 LIRF 221320Z 23010KT 200V260 CAVOK 24/18 Q1014 NOSIG
2022/05/22 12:24 TAF LIRF 221100Z 2212/2318 25012KT CAVOK BECMG 2217/2219 VRB04KT BECMG 2220/2222 4000 BR TEMPO 2300/2305 0800 BCFG BKN005 BECMG 2307/2309 23012KT 9999 FEW025
2022/05/22 13:20 LIML 221320Z 23004KT 170V280 CAVOK 28/17 Q1011 NOSIG
2022/05/22 12:22 TAF LIML 221100Z 2212/2312 22010KT 9999 FEW050 TEMPO 2218/2221 4000 SHRA BECMG 2219/2221 28010KT BECMG 2302/2304 VRB05KT
2022/05/22 13:50 EDDM 221350Z 09005KT 060V140 CAVOK 23/09 Q1014 NOSIG
2022/05/22 12:27 TAF EDDM 221100Z 2212/2318 32005KT 9999 FEW045 BECMG 2216/2218 09004KT BECMG 2309/2311 10009KT PROB30 TEMPO 2315/2318 30025G35KT 3500 TSRAGR BKN035CB BECMG 2317/2318 26005KT
2022/05/22 13:20 EGSS 221320Z AUTO 17006KT 130V250 9999 SCT046 21/10 Q1012
2022/05/22 12:09 TAF EGSS 221057Z 2212/2318 20010KT 9999 FEW045 PROB30 2212/2222 12006KT PROB30 TEMPO 2302/2309 8000 -RA BKN014 BECMG 2303/2306 28006KT TEMPO 2312/2318 6000 RA BKN014
2022/05/22 13:50 EDDF 221350Z 05009KT 320V090 CAVOK 24/07 Q1013 NOSIG
2022/05/22 12:28 TAF EDDF 221100Z 2212/2318 03004KT CAVOK PROB30 TEMPO 2304/2306 SHRA BKN060CB BECMG 2309/2312 18006KT TEMPO 2312/2318 SHRA BKN050CB PROB30 TEMPO 2314/2318 23020G35KT 2000 +TSRA BKN030CB

FlightRadar24

Radar Meteo

Traffic data

Agosto 2018

Passeggeri: 63892-12,9% (rank: 23)
Nazionali 34490 -19,8%
Internazionali 29193 -3,0%

Movimenti: 1307+11,7% (rank: 24)
Tot commerciale 556 -7,2%
Aviazione generale 751 +31,5%

Cargo (tons): 20,6+62,5% (rank: 21)

Gennaio - Agosto 2018

Passeggeri: 507438-3,5% (rank: 23)
Nazionali 322655 -4,9%
Internazionali 182927 -0,7%

Movimenti: 10366-4,25 (rank: 22)
Tot commerciale 5328 -11,0%
Aviazione generale 5038 +4,2%

Cargo (tons): 299,2+61,9% (rank: 20)

Photo

Reims F152 II
Reims F152 II
Distinct views: 29
Reims F152
Reims F152
Distinct views: 103
Reims F152 II
Reims F152 II
Distinct views: 259
Airbus A320
Airbus A320
Total views: 4409